sensor_id;sensor_type;location;lat;lon;timestamp;temperature;humidity
39849;DHT22;25518;47.878;15.914;2023-08-07T00:02:30;13.90;99.90
39849;DHT22;25518;47.878;15.914;2023-08-07T00:05:20;13.00;99.90
39849;DHT22;25518;47.878;15.914;2023-08-07T00:08:09;13.90;99.90
39849;DHT22;25518;47.878;15.914;2023-08-07T00:11:15;13.80;99.90
39849;DHT22;25518;47.878;15.914;2023-08-07T00:14:04;13.90;99.90
39849;DHT22;25518;47.878;15.914;2023-08-07T00:16:54;13.90;99.90
39849;DHT22;25518;47.878;15.914;2023-08-07T00:19:44;13.90;99.90
39849;DHT22;25518;47.878;15.914;2023-08-07T00:22:33;13.90;99.90
39849;DHT22;25518;47.878;15.914;2023-08-07T00:25:23;13.90;99.90
39849;DHT22;25518;47.878;15.914;2023-08-07T00:28:13;13.90;99.90
39849;DHT22;25518;47.878;15.914;2023-08-07T00:31:02;14.00;99.90
39849;DHT22;25518;47.878;15.914;2023-08-07T00:33:52;13.90;99.90
39849;DHT22;25518;47.878;15.914;2023-08-07T00:36:43;13.80;99.90
39849;DHT22;25518;47.878;15.914;2023-08-07T00:39:33;13.90;99.90
39849;DHT22;25518;47.878;15.914;2023-08-07T00:42:22;13.90;99.90
39849;DHT22;25518;47.878;15.914;2023-08-07T00:45:12;13.90;99.90
39849;DHT22;25518;47.878;15.914;2023-08-07T00:48:02;13.90;99.90
39849;DHT22;25518;47.878;15.914;2023-08-07T00:50:52;13.80;99.90
39849;DHT22;25518;47.878;15.914;2023-08-07T00:53:42;13.90;99.90
39849;DHT22;25518;47.878;15.914;2023-08-07T00:56:32;14.00;99.90
39849;DHT22;25518;47.878;15.914;2023-08-07T00:59:22;13.90;99.90
39849;DHT22;25518;47.878;15.914;2023-08-07T01:02:12;13.90;99.90
39849;DHT22;25518;47.878;15.914;2023-08-07T01:05:03;13.80;99.90
39849;DHT22;25518;47.878;15.914;2023-08-07T01:07:53;13.80;99.90
39849;DHT22;25518;47.878;15.914;2023-08-07T01:13:43;13.80;99.90
39849;DHT22;25518;47.878;15.914;2023-08-07T01:16:35;13.80;99.90
39849;DHT22;25518;47.878;15.914;2023-08-07T01:19:28;13.70;99.90
39849;DHT22;25518;47.878;15.914;2023-08-07T01:22:19;13.80;99.90
39849;DHT22;25518;47.878;15.914;2023-08-07T01:25:09;13.70;99.90
39849;DHT22;25518;47.878;15.914;2023-08-07T01:31:17;13.80;99.90
39849;DHT22;25518;47.878;15.914;2023-08-07T01:34:11;13.80;99.90
39849;DHT22;25518;47.878;15.914;2023-08-07T01:37:07;13.70;99.90
39849;DHT22;25518;47.878;15.914;2023-08-07T01:40:00;13.70;99.90
39849;DHT22;25518;47.878;15.914;2023-08-07T01:42:53;13.80;99.90
39849;DHT22;25518;47.878;15.914;2023-08-07T01:45:43;13.80;99.90
39849;DHT22;25518;47.878;15.914;2023-08-07T01:48:33;13.80;99.90
39849;DHT22;25518;47.878;15.914;2023-08-07T01:51:23;13.80;99.90
39849;DHT22;25518;47.878;15.914;2023-08-07T01:54:13;13.70;99.90
39849;DHT22;25518;47.878;15.914;2023-08-07T01:57:02;13.80;99.90
39849;DHT22;25518;47.878;15.914;2023-08-07T01:59:52;13.80;99.90
39849;DHT22;25518;47.878;15.914;2023-08-07T02:02:42;13.80;99.90
39849;DHT22;25518;47.878;15.914;2023-08-07T02:05:31;13.70;99.90
39849;DHT22;25518;47.878;15.914;2023-08-07T02:08:21;13.70;99.90
39849;DHT22;25518;47.878;15.914;2023-08-07T02:11:11;13.80;99.90
39849;DHT22;25518;47.878;15.914;2023-08-07T02:14:00;13.70;99.90
39849;DHT22;25518;47.878;15.914;2023-08-07T02:16:50;13.70;99.90
39849;DHT22;25518;47.878;15.914;2023-08-07T02:19:40;13.70;99.90
39849;DHT22;25518;47.878;15.914;2023-08-07T02:22:29;13.60;99.90
39849;DHT22;25518;47.878;15.914;2023-08-07T02:25:19;13.70;99.90
39849;DHT22;25518;47.878;15.914;2023-08-07T02:28:09;13.30;99.90
39849;DHT22;25518;47.878;15.914;2023-08-07T02:30:58;13.70;99.90
39849;DHT22;25518;47.878;15.914;2023-08-07T02:33:48;13.70;99.90
39849;DHT22;25518;47.878;15.914;2023-08-07T02:36:38;13.70;99.90
39849;DHT22;25518;47.878;15.914;2023-08-07T02:39:28;13.60;99.90
39849;DHT22;25518;47.878;15.914;2023-08-07T02:42:17;13.70;99.90
39849;DHT22;25518;47.878;15.914;2023-08-07T02:45:07;13.60;99.90
39849;DHT22;25518;47.878;15.914;2023-08-07T02:47:57;13.60;99.90
39849;DHT22;25518;47.878;15.914;2023-08-07T02:50:47;13.60;99.90
39849;DHT22;25518;47.878;15.914;2023-08-07T02:53:36;13.60;99.90
39849;DHT22;25518;47.878;15.914;2023-08-07T02:56:26;13.50;99.90
39849;DHT22;25518;47.878;15.914;2023-08-07T02:59:16;13.50;99.90
39849;DHT22;25518;47.878;15.914;2023-08-07T03:19:01;13.50;99.90
39849;DHT22;25518;47.878;15.914;2023-08-07T03:21:50;13.40;99.90
39849;DHT22;25518;47.878;15.914;2023-08-07T03:24:40;13.40;99.90
39849;DHT22;25518;47.878;15.914;2023-08-07T03:27:29;13.40;99.90
39849;DHT22;25518;47.878;15.914;2023-08-07T03:30:19;13.40;99.90
39849;DHT22;25518;47.878;15.914;2023-08-07T03:33:09;13.40;99.90
39849;DHT22;25518;47.878;15.914;2023-08-07T03:35:58;13.40;99.90
39849;DHT22;25518;47.878;15.914;2023-08-07T03:38:48;13.40;99.90
39849;DHT22;25518;47.878;15.914;2023-08-07T03:41:38;13.30;99.90
39849;DHT22;25518;47.878;15.914;2023-08-07T03:44:28;13.40;99.90
39849;DHT22;25518;47.878;15.914;2023-08-07T03:47:17;13.30;99.90
39849;DHT22;25518;47.878;15.914;2023-08-07T03:50:07;13.40;99.90
39849;DHT22;25518;47.878;15.914;2023-08-07T03:52:57;13.30;99.90
39849;DHT22;25518;47.878;15.914;2023-08-07T03:55:51;13.30;99.90
39849;DHT22;25518;47.878;15.914;2023-08-07T03:58:41;13.30;99.90
39849;DHT22;25518;47.878;15.914;2023-08-07T04:01:31;13.30;99.90
39849;DHT22;25518;47.878;15.914;2023-08-07T04:04:20;13.20;99.90
39849;DHT22;25518;47.878;15.914;2023-08-07T04:07:10;13.30;99.90
39849;DHT22;25518;47.878;15.914;2023-08-07T04:09:59;13.30;99.90
39849;DHT22;25518;47.878;15.914;2023-08-07T04:12:49;13.30;99.90
39849;DHT22;25518;47.878;15.914;2023-08-07T04:15:39;13.30;99.90
39849;DHT22;25518;47.878;15.914;2023-08-07T04:18:28;13.30;99.90
39849;DHT22;25518;47.878;15.914;2023-08-07T04:21:18;13.20;99.90
39849;DHT22;25518;47.878;15.914;2023-08-07T04:24:08;13.20;99.90
39849;DHT22;25518;47.878;15.914;2023-08-07T04:27:00;13.20;99.90
39849;DHT22;25518;47.878;15.914;2023-08-07T04:29:49;13.20;99.90
39849;DHT22;25518;47.878;15.914;2023-08-07T04:32:39;13.20;99.90
39849;DHT22;25518;47.878;15.914;2023-08-07T04:35:30;13.20;99.90
39849;DHT22;25518;47.878;15.914;2023-08-07T04:38:21;13.20;99.90
39849;DHT22;25518;47.878;15.914;2023-08-07T04:41:11;13.20;99.90
39849;DHT22;25518;47.878;15.914;2023-08-07T04:44:01;13.20;99.90
39849;DHT22;25518;47.878;15.914;2023-08-07T04:46:51;13.00;99.90
39849;DHT22;25518;47.878;15.914;2023-08-07T04:49:41;13.10;99.90
39849;DHT22;25518;47.878;15.914;2023-08-07T04:52:31;13.00;99.90
39849;DHT22;25518;47.878;15.914;2023-08-07T04:55:20;13.10;99.90
39849;DHT22;25518;47.878;15.914;2023-08-07T04:58:10;13.10;99.90
39849;DHT22;25518;47.878;15.914;2023-08-07T05:00:59;13.00;99.90
39849;DHT22;25518;47.878;15.914;2023-08-07T05:03:49;13.10;99.90
39849;DHT22;25518;47.878;15.914;2023-08-07T05:06:39;13.20;99.90
39849;DHT22;25518;47.878;15.914;2023-08-07T05:09:29;13.20;99.90
39849;DHT22;25518;47.878;15.914;2023-08-07T05:12:20;13.10;99.90
39849;DHT22;25518;47.878;15.914;2023-08-07T05:15:09;13.20;99.90
39849;DHT22;25518;47.878;15.914;2023-08-07T05:17:59;12.90;99.90
39849;DHT22;25518;47.878;15.914;2023-08-07T05:20:48;13.00;99.90
39849;DHT22;25518;47.878;15.914;2023-08-07T05:23:38;12.90;99.90
39849;DHT22;25518;47.878;15.914;2023-08-07T05:26:28;12.90;99.90
39849;DHT22;25518;47.878;15.914;2023-08-07T05:29:19;13.00;99.90
39849;DHT22;25518;47.878;15.914;2023-08-07T05:32:11;12.80;99.90
39849;DHT22;25518;47.878;15.914;2023-08-07T05:35:03;12.90;99.90
39849;DHT22;25518;47.878;15.914;2023-08-07T05:37:53;12.90;99.90
39849;DHT22;25518;47.878;15.914;2023-08-07T05:40:43;12.80;99.90
39849;DHT22;25518;47.878;15.914;2023-08-07T05:43:33;12.90;99.90
39849;DHT22;25518;47.878;15.914;2023-08-07T05:46:23;12.90;99.90
39849;DHT22;25518;47.878;15.914;2023-08-07T05:49:12;12.90;99.90
39849;DHT22;25518;47.878;15.914;2023-08-07T05:52:02;12.80;99.90
39849;DHT22;25518;47.878;15.914;2023-08-07T05:54:51;12.70;99.90
39849;DHT22;25518;47.878;15.914;2023-08-07T05:57:41;12.70;99.90
39849;DHT22;25518;47.878;15.914;2023-08-07T06:00:31;12.80;99.90
39849;DHT22;25518;47.878;15.914;2023-08-07T06:03:21;12.90;99.90
39849;DHT22;25518;47.878;15.914;2023-08-07T06:06:10;12.90;99.90
39849;DHT22;25518;47.878;15.914;2023-08-07T06:09:00;13.00;99.90
39849;DHT22;25518;47.878;15.914;2023-08-07T06:11:49;12.80;99.90
39849;DHT22;25518;47.878;15.914;2023-08-07T06:14:39;12.80;99.90
39849;DHT22;25518;47.878;15.914;2023-08-07T06:17:28;12.90;99.90
39849;DHT22;25518;47.878;15.914;2023-08-07T06:20:19;12.80;99.90
39849;DHT22;25518;47.878;15.914;2023-08-07T06:23:09;12.80;99.90
39849;DHT22;25518;47.878;15.914;2023-08-07T06:25:59;12.70;99.90
39849;DHT22;25518;47.878;15.914;2023-08-07T06:28:49;12.60;99.90
39849;DHT22;25518;47.878;15.914;2023-08-07T06:31:39;12.50;99.90
39849;DHT22;25518;47.878;15.914;2023-08-07T06:34:28;12.40;99.90
39849;DHT22;25518;47.878;15.914;2023-08-07T06:37:19;12.50;99.90
39849;DHT22;25518;47.878;15.914;2023-08-07T06:40:09;12.50;99.90
39849;DHT22;25518;47.878;15.914;2023-08-07T06:42:59;11.90;99.90
39849;DHT22;25518;47.878;15.914;2023-08-07T06:45:50;12.50;99.90
39849;DHT22;25518;47.878;15.914;2023-08-07T06:48:40;12.40;99.90
39849;DHT22;25518;47.878;15.914;2023-08-07T06:51:30;12.40;99.90
39849;DHT22;25518;47.878;15.914;2023-08-07T06:54:19;12.40;99.90
39849;DHT22;25518;47.878;15.914;2023-08-07T06:57:09;12.40;99.90
39849;DHT22;25518;47.878;15.914;2023-08-07T06:59:59;12.50;99.90
39849;DHT22;25518;47.878;15.914;2023-08-07T07:02:48;12.60;99.90
39849;DHT22;25518;47.878;15.914;2023-08-07T07:05:38;12.60;99.90
39849;DHT22;25518;47.878;15.914;2023-08-07T07:08:28;12.30;99.90
39849;DHT22;25518;47.878;15.914;2023-08-07T07:11:17;12.70;99.90
39849;DHT22;25518;47.878;15.914;2023-08-07T07:14:07;12.70;99.90
39849;DHT22;25518;47.878;15.914;2023-08-07T07:16:57;12.70;99.90
39849;DHT22;25518;47.878;15.914;2023-08-07T07:19:46;12.70;99.90
39849;DHT22;25518;47.878;15.914;2023-08-07T07:22:36;12.80;99.90
39849;DHT22;25518;47.878;15.914;2023-08-07T07:25:25;12.80;99.90
39849;DHT22;25518;47.878;15.914;2023-08-07T07:28:15;12.90;99.90
39849;DHT22;25518;47.878;15.914;2023-08-07T07:31:05;12.90;99.90
39849;DHT22;25518;47.878;15.914;2023-08-07T07:33:54;12.70;99.90
39849;DHT22;25518;47.878;15.914;2023-08-07T07:36:44;12.90;99.90
39849;DHT22;25518;47.878;15.914;2023-08-07T07:39:35;12.80;99.90
39849;DHT22;25518;47.878;15.914;2023-08-07T07:42:24;12.90;99.90
39849;DHT22;25518;47.878;15.914;2023-08-07T07:45:14;12.90;99.90
39849;DHT22;25518;47.878;15.914;2023-08-07T07:48:04;12.90;99.90
39849;DHT22;25518;47.878;15.914;2023-08-07T07:51:03;13.00;99.90
39849;DHT22;25518;47.878;15.914;2023-08-07T07:53:53;13.00;99.90
39849;DHT22;25518;47.878;15.914;2023-08-07T07:56:43;13.10;99.90
39849;DHT22;25518;47.878;15.914;2023-08-07T07:59:33;13.10;99.90
39849;DHT22;25518;47.878;15.914;2023-08-07T08:02:22;13.10;99.90
39849;DHT22;25518;47.878;15.914;2023-08-07T08:05:13;13.00;99.90
39849;DHT22;25518;47.878;15.914;2023-08-07T08:08:06;13.00;99.90
39849;DHT22;25518;47.878;15.914;2023-08-07T08:10:57;13.10;99.90
39849;DHT22;25518;47.878;15.914;2023-08-07T08:13:47;13.30;99.90
39849;DHT22;25518;47.878;15.914;2023-08-07T08:16:36;13.40;99.90
39849;DHT22;25518;47.878;15.914;2023-08-07T08:19:26;12.40;99.90
39849;DHT22;25518;47.878;15.914;2023-08-07T08:22:16;13.50;99.90
39849;DHT22;25518;47.878;15.914;2023-08-07T08:25:06;13.60;99.90
39849;DHT22;25518;47.878;15.914;2023-08-07T08:27:56;13.80;99.90
39849;DHT22;25518;47.878;15.914;2023-08-07T08:30:46;13.80;99.90
39849;DHT22;25518;47.878;15.914;2023-08-07T08:33:37;13.80;99.90
39849;DHT22;25518;47.878;15.914;2023-08-07T08:36:27;13.90;99.90
39849;DHT22;25518;47.878;15.914;2023-08-07T08:39:16;13.80;99.90
39849;DHT22;25518;47.878;15.914;2023-08-07T08:42:08;13.80;99.90
39849;DHT22;25518;47.878;15.914;2023-08-07T08:45:01;13.80;99.90
39849;DHT22;25518;47.878;15.914;2023-08-07T08:47:55;13.70;99.90
39849;DHT22;25518;47.878;15.914;2023-08-07T08:50:49;13.60;99.90
39849;DHT22;25518;47.878;15.914;2023-08-07T08:53:39;13.50;99.90
39849;DHT22;25518;47.878;15.914;2023-08-07T08:56:31;13.30;99.90
39849;DHT22;25518;47.878;15.914;2023-08-07T08:59:21;13.20;99.90
39849;DHT22;25518;47.878;15.914;2023-08-07T09:02:11;13.30;99.90
39849;DHT22;25518;47.878;15.914;2023-08-07T09:05:00;13.10;99.90
39849;DHT22;25518;47.878;15.914;2023-08-07T09:07:50;12.80;99.90
39849;DHT22;25518;47.878;15.914;2023-08-07T09:10:40;12.80;99.90
39849;DHT22;25518;47.878;15.914;2023-08-07T09:13:31;12.90;99.90
39849;DHT22;25518;47.878;15.914;2023-08-07T09:16:23;12.90;99.90
39849;DHT22;25518;47.878;15.914;2023-08-07T09:19:14;12.90;99.90
39849;DHT22;25518;47.878;15.914;2023-08-07T09:22:04;12.90;99.90
39849;DHT22;25518;47.878;15.914;2023-08-07T09:24:54;12.90;99.90
39849;DHT22;25518;47.878;15.914;2023-08-07T09:27:45;12.90;99.90
39849;DHT22;25518;47.878;15.914;2023-08-07T09:30:35;12.80;99.90
39849;DHT22;25518;47.878;15.914;2023-08-07T09:33:28;12.40;99.90
39849;DHT22;25518;47.878;15.914;2023-08-07T09:36:18;12.50;99.90
39849;DHT22;25518;47.878;15.914;2023-08-07T09:39:08;12.70;99.90
39849;DHT22;25518;47.878;15.914;2023-08-07T09:41:57;12.70;99.90
39849;DHT22;25518;47.878;15.914;2023-08-07T09:44:47;12.60;99.90
39849;DHT22;25518;47.878;15.914;2023-08-07T09:47:38;12.50;99.90
39849;DHT22;25518;47.878;15.914;2023-08-07T09:50:29;12.30;99.90
39849;DHT22;25518;47.878;15.914;2023-08-07T09:53:25;12.20;99.90
39849;DHT22;25518;47.878;15.914;2023-08-07T09:56:16;12.00;99.90
39849;DHT22;25518;47.878;15.914;2023-08-07T09:59:07;12.00;99.90
39849;DHT22;25518;47.878;15.914;2023-08-07T10:01:58;12.00;99.90
39849;DHT22;25518;47.878;15.914;2023-08-07T10:04:50;12.00;99.90
39849;DHT22;25518;47.878;15.914;2023-08-07T10:07:40;11.90;99.90
39849;DHT22;25518;47.878;15.914;2023-08-07T10:10:32;11.90;99.90
39849;DHT22;25518;47.878;15.914;2023-08-07T10:13:23;11.80;99.90
39849;DHT22;25518;47.878;15.914;2023-08-07T10:16:14;11.70;99.90
39849;DHT22;25518;47.878;15.914;2023-08-07T10:19:03;11.70;99.90
39849;DHT22;25518;47.878;15.914;2023-08-07T10:21:54;11.60;99.90
39849;DHT22;25518;47.878;15.914;2023-08-07T10:24:44;11.60;99.90
39849;DHT22;25518;47.878;15.914;2023-08-07T10:27:39;11.60;99.90
39849;DHT22;25518;47.878;15.914;2023-08-07T10:30:29;11.50;99.90
39849;DHT22;25518;47.878;15.914;2023-08-07T10:33:20;11.40;99.90
39849;DHT22;25518;47.878;15.914;2023-08-07T10:36:10;11.40;99.90
39849;DHT22;25518;47.878;15.914;2023-08-07T10:39:09;10.80;99.90
39849;DHT22;25518;47.878;15.914;2023-08-07T10:41:59;11.70;99.90
39849;DHT22;25518;47.878;15.914;2023-08-07T10:44:49;11.70;99.90
39849;DHT22;25518;47.878;15.914;2023-08-07T10:47:39;11.50;99.90
39849;DHT22;25518;47.878;15.914;2023-08-07T10:50:31;11.30;99.90
39849;DHT22;25518;47.878;15.914;2023-08-07T10:56:32;11.40;99.90
39849;DHT22;25518;47.878;15.914;2023-08-07T10:59:23;11.40;99.90
39849;DHT22;25518;47.878;15.914;2023-08-07T11:02:13;11.60;99.90
39849;DHT22;25518;47.878;15.914;2023-08-07T11:05:12;11.50;99.90
39849;DHT22;25518;47.878;15.914;2023-08-07T11:08:02;11.40;99.90
39849;DHT22;25518;47.878;15.914;2023-08-07T11:10:53;11.60;99.90
39849;DHT22;25518;47.878;15.914;2023-08-07T11:13:44;11.50;99.90
39849;DHT22;25518;47.878;15.914;2023-08-07T11:16:35;11.60;99.90
39849;DHT22;25518;47.878;15.914;2023-08-07T11:19:25;11.50;99.90
39849;DHT22;25518;47.878;15.914;2023-08-07T11:22:15;11.50;99.90
39849;DHT22;25518;47.878;15.914;2023-08-07T11:25:06;11.50;99.90
39849;DHT22;25518;47.878;15.914;2023-08-07T11:27:59;11.40;99.90
39849;DHT22;25518;47.878;15.914;2023-08-07T11:30:51;11.40;99.90
39849;DHT22;25518;47.878;15.914;2023-08-07T11:33:42;11.60;99.90
39849;DHT22;25518;47.878;15.914;2023-08-07T11:36:31;11.60;99.90
39849;DHT22;25518;47.878;15.914;2023-08-07T11:39:23;11.70;99.90
39849;DHT22;25518;47.878;15.914;2023-08-07T11:42:13;11.80;99.90
39849;DHT22;25518;47.878;15.914;2023-08-07T11:45:03;11.90;99.90
39849;DHT22;25518;47.878;15.914;2023-08-07T11:47:53;11.60;99.90
39849;DHT22;25518;47.878;15.914;2023-08-07T11:50:45;11.70;99.90
39849;DHT22;25518;47.878;15.914;2023-08-07T11:53:36;11.70;99.90
39849;DHT22;25518;47.878;15.914;2023-08-07T11:56:26;11.70;99.90
39849;DHT22;25518;47.878;15.914;2023-08-07T11:59:17;11.80;99.90
39849;DHT22;25518;47.878;15.914;2023-08-07T12:02:10;11.70;99.90
39849;DHT22;25518;47.878;15.914;2023-08-07T12:05:01;11.70;99.90
39849;DHT22;25518;47.878;15.914;2023-08-07T12:07:51;11.80;99.90
39849;DHT22;25518;47.878;15.914;2023-08-07T12:10:41;11.90;99.90
39849;DHT22;25518;47.878;15.914;2023-08-07T12:13:32;11.90;99.90
39849;DHT22;25518;47.878;15.914;2023-08-07T12:16:24;12.00;99.90
39849;DHT22;25518;47.878;15.914;2023-08-07T12:19:14;12.10;99.90
39849;DHT22;25518;47.878;15.914;2023-08-07T12:22:07;12.10;99.90
39849;DHT22;25518;47.878;15.914;2023-08-07T12:24:57;9.90;99.90
39849;DHT22;25518;47.878;15.914;2023-08-07T12:27:47;12.10;99.90
39849;DHT22;25518;47.878;15.914;2023-08-07T12:30:38;12.20;99.90
39849;DHT22;25518;47.878;15.914;2023-08-07T12:33:29;12.20;99.90
39849;DHT22;25518;47.878;15.914;2023-08-07T12:36:19;12.10;99.90
39849;DHT22;25518;47.878;15.914;2023-08-07T12:39:09;12.20;99.90
39849;DHT22;25518;47.878;15.914;2023-08-07T12:41:58;12.30;99.90
39849;DHT22;25518;47.878;15.914;2023-08-07T12:44:48;12.40;99.90
39849;DHT22;25518;47.878;15.914;2023-08-07T12:47:37;12.30;99.90
39849;DHT22;25518;47.878;15.914;2023-08-07T12:50:28;12.20;99.90
39849;DHT22;25518;47.878;15.914;2023-08-07T12:53:17;12.20;99.90
39849;DHT22;25518;47.878;15.914;2023-08-07T12:56:07;12.10;99.90
39849;DHT22;25518;47.878;15.914;2023-08-07T12:58:56;12.10;99.90
39849;DHT22;25518;47.878;15.914;2023-08-07T13:01:46;12.10;99.90
39849;DHT22;25518;47.878;15.914;2023-08-07T13:04:36;12.10;99.90
39849;DHT22;25518;47.878;15.914;2023-08-07T13:07:25;12.20;99.90
39849;DHT22;25518;47.878;15.914;2023-08-07T13:10:17;12.10;99.90
39849;DHT22;25518;47.878;15.914;2023-08-07T13:13:07;12.20;99.90
39849;DHT22;25518;47.878;15.914;2023-08-07T13:15:57;12.00;99.90
39849;DHT22;25518;47.878;15.914;2023-08-07T13:18:46;11.90;99.90
39849;DHT22;25518;47.878;15.914;2023-08-07T13:21:35;11.80;99.90
39849;DHT22;25518;47.878;15.914;2023-08-07T13:24:25;11.80;99.90
39849;DHT22;25518;47.878;15.914;2023-08-07T13:27:15;11.90;99.90
39849;DHT22;25518;47.878;15.914;2023-08-07T13:30:05;12.00;99.90
39849;DHT22;25518;47.878;15.914;2023-08-07T13:32:56;12.00;99.90
39849;DHT22;25518;47.878;15.914;2023-08-07T13:35:46;12.00;99.90
39849;DHT22;25518;47.878;15.914;2023-08-07T13:38:36;12.00;99.90
39849;DHT22;25518;47.878;15.914;2023-08-07T13:41:26;12.10;99.90
39849;DHT22;25518;47.878;15.914;2023-08-07T13:44:16;12.10;99.90
39849;DHT22;25518;47.878;15.914;2023-08-07T13:47:05;10.90;99.90
39849;DHT22;25518;47.878;15.914;2023-08-07T13:49:56;12.00;99.90
39849;DHT22;25518;47.878;15.914;2023-08-07T13:52:47;12.00;99.90
39849;DHT22;25518;47.878;15.914;2023-08-07T13:55:36;12.00;99.90
39849;DHT22;25518;47.878;15.914;2023-08-07T13:58:26;11.20;99.90
39849;DHT22;25518;47.878;15.914;2023-08-07T14:01:17;12.20;99.90
39849;DHT22;25518;47.878;15.914;2023-08-07T14:04:07;12.10;99.90
39849;DHT22;25518;47.878;15.914;2023-08-07T14:06:58;12.10;99.90
39849;DHT22;25518;47.878;15.914;2023-08-07T14:09:48;10.40;99.90
39849;DHT22;25518;47.878;15.914;2023-08-07T14:12:38;12.10;99.90
39849;DHT22;25518;47.878;15.914;2023-08-07T14:15:27;12.10;99.90
39849;DHT22;25518;47.878;15.914;2023-08-07T14:18:17;12.20;99.90
39849;DHT22;25518;47.878;15.914;2023-08-07T14:21:07;12.10;99.90
39849;DHT22;25518;47.878;15.914;2023-08-07T14:23:56;12.00;99.90
39849;DHT22;25518;47.878;15.914;2023-08-07T14:26:46;12.00;99.90
39849;DHT22;25518;47.878;15.914;2023-08-07T14:29:36;12.10;99.90
39849;DHT22;25518;47.878;15.914;2023-08-07T14:32:25;12.10;99.90
39849;DHT22;25518;47.878;15.914;2023-08-07T14:35:15;12.20;99.90
39849;DHT22;25518;47.878;15.914;2023-08-07T14:38:05;12.40;99.90
39849;DHT22;25518;47.878;15.914;2023-08-07T14:40:55;11.40;99.90
39849;DHT22;25518;47.878;15.914;2023-08-07T14:43:46;12.50;99.90
39849;DHT22;25518;47.878;15.914;2023-08-07T14:46:36;12.50;99.90
39849;DHT22;25518;47.878;15.914;2023-08-07T14:49:27;12.50;99.90
39849;DHT22;25518;47.878;15.914;2023-08-07T14:52:17;9.90;99.90
39849;DHT22;25518;47.878;15.914;2023-08-07T14:55:07;12.60;99.90
39849;DHT22;25518;47.878;15.914;2023-08-07T14:57:56;12.50;99.90
39849;DHT22;25518;47.878;15.914;2023-08-07T15:00:46;12.50;99.90
39849;DHT22;25518;47.878;15.914;2023-08-07T15:03:36;12.50;99.90
39849;DHT22;25518;47.878;15.914;2023-08-07T15:06:25;12.70;99.90
39849;DHT22;25518;47.878;15.914;2023-08-07T15:09:15;12.90;99.90
39849;DHT22;25518;47.878;15.914;2023-08-07T15:12:07;12.80;99.90
39849;DHT22;25518;47.878;15.914;2023-08-07T15:14:57;12.80;99.90
39849;DHT22;25518;47.878;15.914;2023-08-07T15:17:47;12.80;99.90
39849;DHT22;25518;47.878;15.914;2023-08-07T15:20:36;12.90;99.90
39849;DHT22;25518;47.878;15.914;2023-08-07T15:23:26;12.90;99.90
39849;DHT22;25518;47.878;15.914;2023-08-07T15:26:16;13.00;99.90
39849;DHT22;25518;47.878;15.914;2023-08-07T15:29:06;12.90;99.90
39849;DHT22;25518;47.878;15.914;2023-08-07T15:31:55;12.90;99.90
39849;DHT22;25518;47.878;15.914;2023-08-07T15:34:46;13.00;99.90
39849;DHT22;25518;47.878;15.914;2023-08-07T15:37:37;13.00;99.90
39849;DHT22;25518;47.878;15.914;2023-08-07T15:40:26;13.10;99.90
39849;DHT22;25518;47.878;15.914;2023-08-07T15:43:17;13.20;99.90
39849;DHT22;25518;47.878;15.914;2023-08-07T15:46:06;13.40;99.90
39849;DHT22;25518;47.878;15.914;2023-08-07T15:48:56;13.50;99.90
39849;DHT22;25518;47.878;15.914;2023-08-07T15:51:45;13.20;99.90
39849;DHT22;25518;47.878;15.914;2023-08-07T15:54:35;13.50;99.90
39849;DHT22;25518;47.878;15.914;2023-08-07T15:57:25;13.60;99.90
39849;DHT22;25518;47.878;15.914;2023-08-07T16:00:15;13.70;99.90
39849;DHT22;25518;47.878;15.914;2023-08-07T16:03:06;13.80;99.90
39849;DHT22;25518;47.878;15.914;2023-08-07T16:05:57;14.00;99.90
39849;DHT22;25518;47.878;15.914;2023-08-07T16:08:46;14.20;99.90
39849;DHT22;25518;47.878;15.914;2023-08-07T16:11:36;14.30;99.90
39849;DHT22;25518;47.878;15.914;2023-08-07T16:14:26;14.30;99.90
39849;DHT22;25518;47.878;15.914;2023-08-07T16:17:16;14.30;99.90
39849;DHT22;25518;47.878;15.914;2023-08-07T16:20:06;14.30;99.90
39849;DHT22;25518;47.878;15.914;2023-08-07T16:22:56;14.50;99.90
39849;DHT22;25518;47.878;15.914;2023-08-07T16:25:45;14.60;99.90
39849;DHT22;25518;47.878;15.914;2023-08-07T16:28:35;14.60;99.90
39849;DHT22;25518;47.878;15.914;2023-08-07T16:31:25;14.60;99.90
39849;DHT22;25518;47.878;15.914;2023-08-07T16:34:15;14.40;99.90
39849;DHT22;25518;47.878;15.914;2023-08-07T16:37:05;14.30;99.90
39849;DHT22;25518;47.878;15.914;2023-08-07T16:39:55;14.60;99.90
39849;DHT22;25518;47.878;15.914;2023-08-07T16:42:45;14.80;99.90
39849;DHT22;25518;47.878;15.914;2023-08-07T16:45:35;14.80;99.90
39849;DHT22;25518;47.878;15.914;2023-08-07T16:48:24;14.80;99.90
39849;DHT22;25518;47.878;15.914;2023-08-07T16:51:14;14.70;99.90
39849;DHT22;25518;47.878;15.914;2023-08-07T16:54:04;14.50;99.90
39849;DHT22;25518;47.878;15.914;2023-08-07T16:56:54;14.40;99.90
39849;DHT22;25518;47.878;15.914;2023-08-07T16:59:44;14.30;99.90
39849;DHT22;25518;47.878;15.914;2023-08-07T17:02:33;14.20;99.90
39849;DHT22;25518;47.878;15.914;2023-08-07T17:05:23;14.10;99.90
39849;DHT22;25518;47.878;15.914;2023-08-07T17:08:14;14.10;99.90
39849;DHT22;25518;47.878;15.914;2023-08-07T17:11:03;14.10;99.90
39849;DHT22;25518;47.878;15.914;2023-08-07T17:13:53;14.00;99.90
39849;DHT22;25518;47.878;15.914;2023-08-07T17:16:42;13.90;99.90
39849;DHT22;25518;47.878;15.914;2023-08-07T17:19:32;13.90;99.90
39849;DHT22;25518;47.878;15.914;2023-08-07T17:22:22;13.80;99.90
39849;DHT22;25518;47.878;15.914;2023-08-07T17:25:11;13.70;99.90
39849;DHT22;25518;47.878;15.914;2023-08-07T17:28:01;13.70;99.90
39849;DHT22;25518;47.878;15.914;2023-08-07T17:30:50;13.60;99.90
39849;DHT22;25518;47.878;15.914;2023-08-07T17:33:40;11.80;99.90
39849;DHT22;25518;47.878;15.914;2023-08-07T17:36:30;13.70;99.90
39849;DHT22;25518;47.878;15.914;2023-08-07T17:39:20;13.60;99.90
39849;DHT22;25518;47.878;15.914;2023-08-07T17:42:10;13.70;99.90
39849;DHT22;25518;47.878;15.914;2023-08-07T17:44:59;13.60;99.90
39849;DHT22;25518;47.878;15.914;2023-08-07T17:47:49;13.70;99.90
39849;DHT22;25518;47.878;15.914;2023-08-07T17:50:39;13.70;99.90
39849;DHT22;25518;47.878;15.914;2023-08-07T17:53:28;13.70;99.90
39849;DHT22;25518;47.878;15.914;2023-08-07T17:56:18;13.50;99.90
39849;DHT22;25518;47.878;15.914;2023-08-07T17:59:07;13.60;99.90
39849;DHT22;25518;47.878;15.914;2023-08-07T18:01:57;13.50;99.90
39849;DHT22;25518;47.878;15.914;2023-08-07T18:04:48;13.50;99.90